sensor_id;sensor_type;location;lat;lon;timestamp;pressure;altitude;pressure_sealevel;temperature;humidity
55373;BME280;41249;47.838;16.490;2023-02-11T00:01:48;101283.59;;;-5.11;55.17
55373;BME280;41249;47.838;16.490;2023-02-11T00:04:15;101281.63;;;-5.15;55.89
55373;BME280;41249;47.838;16.490;2023-02-11T00:06:41;101284.56;;;-5.17;54.88
55373;BME280;41249;47.838;16.490;2023-02-11T00:09:09;101278.31;;;-5.17;54.91
55373;BME280;41249;47.838;16.490;2023-02-11T00:11:35;101277.75;;;-5.19;54.95
55373;BME280;41249;47.838;16.490;2023-02-11T00:14:05;101269.13;;;-5.16;55.91
55373;BME280;41249;47.838;16.490;2023-02-11T00:16:33;101272.50;;;-5.09;55.71
55373;BME280;41249;47.838;16.490;2023-02-11T00:19:01;101268.47;;;-5.07;54.89
55373;BME280;41249;47.838;16.490;2023-02-11T00:21:28;101272.50;;;-5.09;54.99
55373;BME280;41249;47.838;16.490;2023-02-11T00:23:56;101267.56;;;-5.12;54.51
55373;BME280;41249;47.838;16.490;2023-02-11T00:26:30;101268.38;;;-5.12;54.59
55373;BME280;41249;47.838;16.490;2023-02-11T00:28:57;101264.16;;;-5.08;55.99
55373;BME280;41249;47.838;16.490;2023-02-11T00:31:25;101273.31;;;-5.09;55.73
55373;BME280;41249;47.838;16.490;2023-02-11T00:33:52;101267.16;;;-5.04;55.76
55373;BME280;41249;47.838;16.490;2023-02-11T00:36:24;101260.50;;;-4.96;55.46
55373;BME280;41249;47.838;16.490;2023-02-11T00:38:52;101258.56;;;-5.01;54.96
55373;BME280;41249;47.838;16.490;2023-02-11T00:41:20;101266.28;;;-4.93;55.77
55373;BME280;41249;47.838;16.490;2023-02-11T00:43:47;101262.25;;;-4.90;55.89
55373;BME280;41249;47.838;16.490;2023-02-11T00:46:14;101261.34;;;-4.96;55.37
55373;BME280;41249;47.838;16.490;2023-02-11T00:48:41;101261.00;;;-5.00;56.15
55373;BME280;41249;47.838;16.490;2023-02-11T00:51:08;101249.38;;;-5.00;56.07
55373;BME280;41249;47.838;16.490;2023-02-11T00:53:35;101251.34;;;-4.95;55.77
55373;BME280;41249;47.838;16.490;2023-02-11T00:56:02;101249.69;;;-4.96;56.52
55373;BME280;41249;47.838;16.490;2023-02-11T00:58:29;101249.19;;;-4.93;55.20
55373;BME280;41249;47.838;16.490;2023-02-11T01:00:56;101252.81;;;-4.88;55.86
55373;BME280;41249;47.838;16.490;2023-02-11T01:03:23;101244.50;;;-4.81;55.19
55373;BME280;41249;47.838;16.490;2023-02-11T01:05:49;101230.53;;;-4.73;55.49
55373;BME280;41249;47.838;16.490;2023-02-11T01:08:17;101236.84;;;-4.68;54.62
55373;BME280;41249;47.838;16.490;2023-02-11T01:10:43;101235.59;;;-4.60;54.84
55373;BME280;41249;47.838;16.490;2023-02-11T01:13:10;101236.84;;;-4.68;54.57
55373;BME280;41249;47.838;16.490;2023-02-11T01:15:37;101231.28;;;-4.94;55.10
55373;BME280;41249;47.838;16.490;2023-02-11T01:18:04;101222.69;;;-5.25;55.82
55373;BME280;41249;47.838;16.490;2023-02-11T01:20:31;101229.34;;;-5.49;56.62
55373;BME280;41249;47.838;16.490;2023-02-11T01:22:57;101224.41;;;-5.52;56.95
55373;BME280;41249;47.838;16.490;2023-02-11T01:25:24;101222.44;;;-5.56;56.93
55373;BME280;41249;47.838;16.490;2023-02-11T01:27:50;101229.44;;;-5.72;58.32
55373;BME280;41249;47.838;16.490;2023-02-11T01:30:17;101226.34;;;-5.64;58.20
55373;BME280;41249;47.838;16.490;2023-02-11T01:32:43;101223.75;;;-5.59;58.13
55373;BME280;41249;47.838;16.490;2023-02-11T01:35:10;101225.31;;;-5.63;57.69
55373;BME280;41249;47.838;16.490;2023-02-11T01:37:37;101226.81;;;-5.84;58.57
55373;BME280;41249;47.838;16.490;2023-02-11T01:40:06;101220.91;;;-5.97;58.56
55373;BME280;41249;47.838;16.490;2023-02-11T01:42:33;101220.41;;;-5.94;59.04
55373;BME280;41249;47.838;16.490;2023-02-11T01:45:02;101218.09;;;-6.02;59.67
55373;BME280;41249;47.838;16.490;2023-02-11T01:47:47;101214.94;;;-6.11;59.66
55373;BME280;41249;47.838;16.490;2023-02-11T01:50:13;101218.94;;;-6.13;59.04
55373;BME280;41249;47.838;16.490;2023-02-11T01:52:40;101218.59;;;-5.89;59.52
55373;BME280;41249;47.838;16.490;2023-02-11T01:55:10;101219.22;;;-5.70;59.50
55373;BME280;41249;47.838;16.490;2023-02-11T01:58:00;101220.44;;;-5.78;59.21
55373;BME280;41249;47.838;16.490;2023-02-11T02:00:33;101214.03;;;-5.88;59.31
55373;BME280;41249;47.838;16.490;2023-02-11T02:03:27;101214.56;;;-6.03;59.67
55373;BME280;41249;47.838;16.490;2023-02-11T02:06:02;101205.91;;;-6.16;59.22
55373;BME280;41249;47.838;16.490;2023-02-11T02:08:41;101207.16;;;-6.36;60.92
55373;BME280;41249;47.838;16.490;2023-02-11T02:11:12;101199.22;;;-6.54;61.16
55373;BME280;41249;47.838;16.490;2023-02-11T02:13:38;101201.34;;;-6.56;61.56
55373;BME280;41249;47.838;16.490;2023-02-11T02:16:10;101202.38;;;-6.57;64.09
55373;BME280;41249;47.838;16.490;2023-02-11T02:37:46;101176.56;;;-6.53;63.36
55373;BME280;41249;47.838;16.490;2023-02-11T02:40:20;101176.56;;;-6.53;63.58
55373;BME280;41249;47.838;16.490;2023-02-11T02:42:49;101177.97;;;-6.62;64.92
55373;BME280;41249;47.838;16.490;2023-02-11T02:45:17;101172.56;;;-6.62;63.66
55373;BME280;41249;47.838;16.490;2023-02-11T02:47:44;101174.84;;;-6.70;63.87
55373;BME280;41249;47.838;16.490;2023-02-11T02:50:13;101168.97;;;-6.79;63.65
55373;BME280;41249;47.838;16.490;2023-02-11T02:58:24;101158.53;;;-6.87;64.08
55373;BME280;41249;47.838;16.490;2023-02-11T03:08:53;101145.03;;;-6.87;65.04
55373;BME280;41249;47.838;16.490;2023-02-11T03:11:23;101139.09;;;-7.01;63.66
55373;BME280;41249;47.838;16.490;2023-02-11T03:13:51;101131.72;;;-7.05;64.44
55373;BME280;41249;47.838;16.490;2023-02-11T03:16:25;101152.84;;;-7.02;65.83
55373;BME280;41249;47.838;16.490;2023-02-11T03:18:59;101130.75;;;-6.99;67.19
55373;BME280;41249;47.838;16.490;2023-02-11T03:21:30;101131.25;;;-7.02;66.93
55373;BME280;41249;47.838;16.490;2023-02-11T03:24:02;101133.19;;;-6.86;65.78
55373;BME280;41249;47.838;16.490;2023-02-11T03:26:45;101131.75;;;-6.77;66.62
55373;BME280;41249;47.838;16.490;2023-02-11T03:29:40;101138.81;;;-6.76;65.43
55373;BME280;41249;47.838;16.490;2023-02-11T03:32:12;101130.44;;;-6.63;66.32
55373;BME280;41249;47.838;16.490;2023-02-11T03:34:48;101136.31;;;-6.66;65.17
55373;BME280;41249;47.838;16.490;2023-02-11T03:37:27;101132.16;;;-6.57;64.48
55373;BME280;41249;47.838;16.490;2023-02-11T03:40:01;101137.47;;;-6.62;65.54
55373;BME280;41249;47.838;16.490;2023-02-11T03:42:35;101135.16;;;-6.70;65.51
55373;BME280;41249;47.838;16.490;2023-02-11T03:45:07;101128.94;;;-6.70;64.25
55373;BME280;41249;47.838;16.490;2023-02-11T03:47:37;101121.13;;;-6.55;63.56
55373;BME280;41249;47.838;16.490;2023-02-11T03:50:07;101128.75;;;-6.52;64.19
55373;BME280;41249;47.838;16.490;2023-02-11T03:52:35;101115.72;;;-6.55;64.00
55373;BME280;41249;47.838;16.490;2023-02-11T03:55:08;101114.69;;;-6.66;65.58
55373;BME280;41249;47.838;16.490;2023-02-11T03:57:36;101105.94;;;-6.73;65.32
55373;BME280;41249;47.838;16.490;2023-02-11T04:00:05;101108.28;;;-6.76;65.11
55373;BME280;41249;47.838;16.490;2023-02-11T04:02:34;101111.59;;;-6.86;64.84
55373;BME280;41249;47.838;16.490;2023-02-11T04:05:01;101104.09;;;-6.96;66.18
55373;BME280;41249;47.838;16.490;2023-02-11T04:07:28;101105.63;;;-6.88;65.75
55373;BME280;41249;47.838;16.490;2023-02-11T04:09:55;101097.38;;;-6.81;65.57
55373;BME280;41249;47.838;16.490;2023-02-11T04:12:21;101098.50;;;-6.66;65.40
55373;BME280;41249;47.838;16.490;2023-02-11T04:14:48;101094.66;;;-6.70;64.45
55373;BME280;41249;47.838;16.490;2023-02-11T04:17:15;101093.09;;;-6.66;63.84
55373;BME280;41249;47.838;16.490;2023-02-11T04:19:42;101083.03;;;-6.82;64.52
55373;BME280;41249;47.838;16.490;2023-02-11T04:22:08;101082.72;;;-6.85;65.58
55373;BME280;41249;47.838;16.490;2023-02-11T04:24:35;101084.78;;;-6.76;66.16
55373;BME280;41249;47.838;16.490;2023-02-11T04:27:02;101073.66;;;-6.79;65.53
55373;BME280;41249;47.838;16.490;2023-02-11T04:29:29;101079.97;;;-6.74;65.37
55373;BME280;41249;47.838;16.490;2023-02-11T04:31:55;101066.53;;;-6.85;65.90
55373;BME280;41249;47.838;16.490;2023-02-11T04:34:22;101070.25;;;-6.86;64.72
55373;BME280;41249;47.838;16.490;2023-02-11T04:36:49;101059.91;;;-6.78;64.19
55373;BME280;41249;47.838;16.490;2023-02-11T04:39:16;101065.84;;;-6.64;64.60
55373;BME280;41249;47.838;16.490;2023-02-11T04:41:43;101061.84;;;-6.62;63.41
55373;BME280;41249;47.838;16.490;2023-02-11T04:44:09;101077.00;;;-6.61;64.33
55373;BME280;41249;47.838;16.490;2023-02-11T04:46:36;101070.72;;;-6.50;64.76
55373;BME280;41249;47.838;16.490;2023-02-11T04:49:03;101064.78;;;-6.35;63.73
55373;BME280;41249;47.838;16.490;2023-02-11T04:51:29;101069.94;;;-6.34;63.90
55373;BME280;41249;47.838;16.490;2023-02-11T04:53:56;101071.69;;;-6.56;64.00
55373;BME280;41249;47.838;16.490;2023-02-11T04:56:23;101074.56;;;-6.74;63.83
55373;BME280;41249;47.838;16.490;2023-02-11T04:58:49;101078.16;;;-6.85;65.18
55373;BME280;41249;47.838;16.490;2023-02-11T05:01:16;101079.19;;;-6.86;66.44
55373;BME280;41249;47.838;16.490;2023-02-11T05:03:43;101075.56;;;-6.91;66.20
55373;BME280;41249;47.838;16.490;2023-02-11T05:06:10;101080.75;;;-6.90;65.05
55373;BME280;41249;47.838;16.490;2023-02-11T05:08:37;101085.47;;;-6.97;65.18
55373;BME280;41249;47.838;16.490;2023-02-11T05:11:05;101078.06;;;-7.02;66.44
55373;BME280;41249;47.838;16.490;2023-02-11T05:13:32;101075.75;;;-7.10;66.18
55373;BME280;41249;47.838;16.490;2023-02-11T05:15:58;101078.31;;;-7.03;66.95
55373;BME280;41249;47.838;16.490;2023-02-11T05:18:25;101071.16;;;-7.09;67.10
55373;BME280;41249;47.838;16.490;2023-02-11T05:20:52;101072.56;;;-7.07;67.49
55373;BME280;41249;47.838;16.490;2023-02-11T05:23:18;101076.53;;;-7.09;66.55
55373;BME280;41249;47.838;16.490;2023-02-11T05:25:45;101078.41;;;-6.98;66.85
55373;BME280;41249;47.838;16.490;2023-02-11T05:28:11;101075.75;;;-6.70;66.95
55373;BME280;41249;47.838;16.490;2023-02-11T05:30:38;101068.34;;;-6.74;65.70
55373;BME280;41249;47.838;16.490;2023-02-11T05:33:05;101059.28;;;-6.68;65.28
55373;BME280;41249;47.838;16.490;2023-02-11T05:35:31;101067.75;;;-6.65;65.62
55373;BME280;41249;47.838;16.490;2023-02-11T05:37:58;101069.63;;;-6.65;65.62
55373;BME280;41249;47.838;16.490;2023-02-11T05:40:24;101075.44;;;-6.57;64.41
55373;BME280;41249;47.838;16.490;2023-02-11T05:42:51;101070.56;;;-6.43;64.66
55373;BME280;41249;47.838;16.490;2023-02-11T05:45:18;101070.59;;;-6.26;63.48
55373;BME280;41249;47.838;16.490;2023-02-11T05:47:44;101079.09;;;-6.35;63.94
55373;BME280;41249;47.838;16.490;2023-02-11T05:50:11;101074.66;;;-6.41;64.35
55373;BME280;41249;47.838;16.490;2023-02-11T05:52:37;101070.41;;;-6.37;64.55
55373;BME280;41249;47.838;16.490;2023-02-11T05:55:05;101069.94;;;-6.34;64.47
55373;BME280;41249;47.838;16.490;2023-02-11T05:57:31;101068.72;;;-6.26;64.75
55373;BME280;41249;47.838;16.490;2023-02-11T05:59:58;101064.53;;;-6.17;64.12
55373;BME280;41249;47.838;16.490;2023-02-11T06:02:24;101066.28;;;-6.11;64.72
55373;BME280;41249;47.838;16.490;2023-02-11T06:04:51;101056.69;;;-6.02;65.15
55373;BME280;41249;47.838;16.490;2023-02-11T06:07:18;101064.06;;;-5.81;63.12
55373;BME280;41249;47.838;16.490;2023-02-11T06:09:46;101065.06;;;-5.70;62.93
55373;BME280;41249;47.838;16.490;2023-02-11T06:12:12;101061.41;;;-5.59;62.36
55373;BME280;41249;47.838;16.490;2023-02-11T06:14:39;101064.38;;;-5.60;63.32
55373;BME280;41249;47.838;16.490;2023-02-11T06:17:05;101065.78;;;-5.58;62.82
55373;BME280;41249;47.838;16.490;2023-02-11T06:19:32;101066.34;;;-5.56;63.41
55373;BME280;41249;47.838;16.490;2023-02-11T06:21:59;101068.78;;;-5.54;63.12
55373;BME280;41249;47.838;16.490;2023-02-11T06:24:26;101057.16;;;-5.55;62.84
55373;BME280;41249;47.838;16.490;2023-02-11T06:27:12;101054.53;;;-5.67;62.90
55373;BME280;41249;47.838;16.490;2023-02-11T06:29:39;101055.84;;;-5.69;64.23
55373;BME280;41249;47.838;16.490;2023-02-11T06:32:06;101048.97;;;-5.60;63.52
55373;BME280;41249;47.838;16.490;2023-02-11T06:34:41;101045.34;;;-5.49;64.14
55373;BME280;41249;47.838;16.490;2023-02-11T06:37:07;101044.66;;;-5.39;64.11
55373;BME280;41249;47.838;16.490;2023-02-11T06:39:34;101044.47;;;-5.33;63.41
55373;BME280;41249;47.838;16.490;2023-02-11T06:42:00;101046.72;;;-5.25;62.84
55373;BME280;41249;47.838;16.490;2023-02-11T06:44:27;101038.19;;;-5.17;62.13
55373;BME280;41249;47.838;16.490;2023-02-11T06:46:53;101031.94;;;-5.17;62.17
55373;BME280;41249;47.838;16.490;2023-02-11T06:49:20;101030.47;;;-5.08;61.61
55373;BME280;41249;47.838;16.490;2023-02-11T06:51:47;101013.56;;;-4.93;60.87
55373;BME280;41249;47.838;16.490;2023-02-11T06:54:13;101015.34;;;-4.77;61.47
55373;BME280;41249;47.838;16.490;2023-02-11T06:56:40;101014.50;;;-4.83;61.62
55373;BME280;41249;47.838;16.490;2023-02-11T06:59:07;101012.84;;;-4.84;61.72
55373;BME280;41249;47.838;16.490;2023-02-11T07:01:34;101010.19;;;-4.79;61.75
55373;BME280;41249;47.838;16.490;2023-02-11T07:04:00;101011.59;;;-4.76;61.88
55373;BME280;41249;47.838;16.490;2023-02-11T07:06:27;101007.09;;;-4.66;61.68
55373;BME280;41249;47.838;16.490;2023-02-11T07:08:54;101001.78;;;-4.56;62.59
55373;BME280;41249;47.838;16.490;2023-02-11T07:11:24;100997.59;;;-4.68;62.96
55373;BME280;41249;47.838;16.490;2023-02-11T07:13:52;101003.09;;;-4.58;62.35
55373;BME280;41249;47.838;16.490;2023-02-11T07:16:20;101005.97;;;-4.43;62.04
55373;BME280;41249;47.838;16.490;2023-02-11T07:18:47;101008.50;;;-4.31;61.30
55373;BME280;41249;47.838;16.490;2023-02-11T07:21:17;101011.56;;;-4.23;62.07
55373;BME280;41249;47.838;16.490;2023-02-11T07:23:45;101012.69;;;-4.19;61.33
55373;BME280;41249;47.838;16.490;2023-02-11T07:26:14;101004.28;;;-4.17;61.12
55373;BME280;41249;47.838;16.490;2023-02-11T07:28:42;101008.47;;;-4.00;62.81
55373;BME280;41249;47.838;16.490;2023-02-11T07:31:17;101023.09;;;-3.69;62.54
55373;BME280;41249;47.838;16.490;2023-02-11T07:33:44;101021.81;;;-3.56;62.17
55373;BME280;41249;47.838;16.490;2023-02-11T07:36:14;101019.75;;;-3.39;61.03
55373;BME280;41249;47.838;16.490;2023-02-11T07:38:42;101008.75;;;-3.08;61.68
55373;BME280;41249;47.838;16.490;2023-02-11T07:41:11;101001.50;;;-2.82;60.63
55373;BME280;41249;47.838;16.490;2023-02-11T07:43:38;100992.78;;;-2.94;59.13
55373;BME280;41249;47.838;16.490;2023-02-11T07:46:08;101006.34;;;-2.99;58.85
55373;BME280;41249;47.838;16.490;2023-02-11T07:48:36;100991.16;;;-2.85;58.55
55373;BME280;41249;47.838;16.490;2023-02-11T07:51:11;100994.19;;;-2.71;59.29
55373;BME280;41249;47.838;16.490;2023-02-11T07:53:39;100985.78;;;-2.55;58.85
55373;BME280;41249;47.838;16.490;2023-02-11T07:56:07;100977.09;;;-2.47;58.57
55373;BME280;41249;47.838;16.490;2023-02-11T07:58:34;100973.84;;;-2.13;57.72
55373;BME280;41249;47.838;16.490;2023-02-11T08:01:05;100974.09;;;-1.95;54.82
55373;BME280;41249;47.838;16.490;2023-02-11T08:03:33;100982.25;;;-1.90;55.56
55373;BME280;41249;47.838;16.490;2023-02-11T08:06:11;100979.22;;;-1.73;54.29
55373;BME280;41249;47.838;16.490;2023-02-11T08:08:38;100975.44;;;-1.67;55.18
55373;BME280;41249;47.838;16.490;2023-02-11T08:11:11;100980.28;;;-1.44;55.07
55373;BME280;41249;47.838;16.490;2023-02-11T08:13:38;100979.63;;;-1.21;54.71
55373;BME280;41249;47.838;16.490;2023-02-11T08:16:06;100989.59;;;-0.96;55.67
55373;BME280;41249;47.838;16.490;2023-02-11T08:18:34;100992.28;;;-0.86;56.74
55373;BME280;41249;47.838;16.490;2023-02-11T08:21:05;100995.06;;;-1.01;57.85
55373;BME280;41249;47.838;16.490;2023-02-11T08:23:32;101004.13;;;-1.16;58.03
55373;BME280;41249;47.838;16.490;2023-02-11T08:26:11;101009.41;;;-1.39;59.47
55373;BME280;41249;47.838;16.490;2023-02-11T08:28:39;101013.44;;;-1.22;59.07
55373;BME280;41249;47.838;16.490;2023-02-11T08:31:12;101014.00;;;-1.30;58.02
55373;BME280;41249;47.838;16.490;2023-02-11T08:33:39;101009.38;;;-1.29;55.60
55373;BME280;41249;47.838;16.490;2023-02-11T08:36:14;101013.44;;;-1.22;53.98
55373;BME280;41249;47.838;16.490;2023-02-11T08:38:42;101007.97;;;-1.17;53.58
55373;BME280;41249;47.838;16.490;2023-02-11T08:41:09;101015.25;;;-1.02;53.54
55373;BME280;41249;47.838;16.490;2023-02-11T08:43:37;101002.41;;;-0.91;52.33
55373;BME280;41249;47.838;16.490;2023-02-11T08:46:08;100998.78;;;-0.77;52.84
55373;BME280;41249;47.838;16.490;2023-02-11T08:48:35;100995.78;;;-0.80;51.71
55373;BME280;41249;47.838;16.490;2023-02-11T08:51:09;101006.16;;;-0.82;51.46
55373;BME280;41249;47.838;16.490;2023-02-11T08:53:37;100993.59;;;-0.78;52.68
55373;BME280;41249;47.838;16.490;2023-02-11T08:56:04;100994.72;;;-0.84;51.73
55373;BME280;41249;47.838;16.490;2023-02-11T08:58:32;100979.75;;;-0.87;51.83
55373;BME280;41249;47.838;16.490;2023-02-11T09:00:58;100990.91;;;-0.83;52.46
55373;BME280;41249;47.838;16.490;2023-02-11T09:03:25;100990.31;;;-0.75;52.54
55373;BME280;41249;47.838;16.490;2023-02-11T09:05:52;100979.31;;;-0.60;53.42
55373;BME280;41249;47.838;16.490;2023-02-11T09:08:19;100972.25;;;-0.66;54.82
55373;BME280;41249;47.838;16.490;2023-02-11T09:10:46;100971.50;;;-0.72;56.03
55373;BME280;41249;47.838;16.490;2023-02-11T09:13:13;100963.09;;;-0.85;56.76
55373;BME280;41249;47.838;16.490;2023-02-11T09:15:44;100972.47;;;-1.01;57.63
55373;BME280;41249;47.838;16.490;2023-02-11T09:18:10;100964.34;;;-1.12;57.75
55373;BME280;41249;47.838;16.490;2023-02-11T09:20:37;100969.09;;;-0.88;57.91
55373;BME280;41249;47.838;16.490;2023-02-11T09:23:04;100972.38;;;-0.43;57.59
55373;BME280;41249;47.838;16.490;2023-02-11T09:25:30;100970.53;;;-0.18;57.19
55373;BME280;41249;47.838;16.490;2023-02-11T09:27:57;100980.88;;;-0.15;57.17
55373;BME280;41249;47.838;16.490;2023-02-11T09:30:23;100970.53;;;0.15;57.30
55373;BME280;41249;47.838;16.490;2023-02-11T09:32:50;100971.81;;;0.47;56.73
55373;BME280;41249;47.838;16.490;2023-02-11T09:35:17;100964.03;;;0.59;56.19
55373;BME280;41249;47.838;16.490;2023-02-11T09:37:43;100966.09;;;0.48;56.96
55373;BME280;41249;47.838;16.490;2023-02-11T09:40:11;100967.00;;;0.62;56.29
55373;BME280;41249;47.838;16.490;2023-02-11T09:45:25;100978.38;;;0.98;56.75
55373;BME280;41249;47.838;16.490;2023-02-11T09:47:58;100976.31;;;1.27;56.42
55373;BME280;41249;47.838;16.490;2023-02-11T09:50:32;100973.59;;;1.27;54.12
55373;BME280;41249;47.838;16.490;2023-02-11T09:53:03;100970.44;;;0.97;55.86
55373;BME280;41249;47.838;16.490;2023-02-11T09:55:34;100976.22;;;0.95;55.23
55373;BME280;41249;47.838;16.490;2023-02-11T09:58:09;100972.13;;;0.93;55.18
55373;BME280;41249;47.838;16.490;2023-02-11T10:22:53;100936.22;;;0.99;51.16
55373;BME280;41249;47.838;16.490;2023-02-11T10:25:25;100925.34;;;0.94;52.16
55373;BME280;41249;47.838;16.490;2023-02-11T10:27:55;100935.44;;;0.75;52.19
55373;BME280;41249;47.838;16.490;2023-02-11T10:30:28;100926.50;;;0.46;52.74
55373;BME280;41249;47.838;16.490;2023-02-11T10:33:02;100922.72;;;0.18;52.65
55373;BME280;41249;47.838;16.490;2023-02-11T10:35:30;100923.63;;;0.08;52.86
55373;BME280;41249;47.838;16.490;2023-02-11T10:37:58;100919.69;;;0.19;52.15
55373;BME280;41249;47.838;16.490;2023-02-11T10:40:27;100919.63;;;0.25;52.52
55373;BME280;41249;47.838;16.490;2023-02-11T10:42:57;100899.94;;;0.28;52.11
55373;BME280;41249;47.838;16.490;2023-02-11T10:47:52;100888.34;;;1.20;50.86
55373;BME280;41249;47.838;16.490;2023-02-11T10:50:32;100886.47;;;1.67;50.08
55373;BME280;41249;47.838;16.490;2023-02-11T10:53:17;100890.22;;;2.17;48.97
55373;BME280;41249;47.838;16.490;2023-02-11T10:55:54;100883.31;;;2.73;47.61
55373;BME280;41249;47.838;16.490;2023-02-11T10:58:28;100891.63;;;3.18;46.92
55373;BME280;41249;47.838;16.490;2023-02-11T11:00:58;100891.50;;;3.36;45.93
55373;BME280;41249;47.838;16.490;2023-02-11T11:03:34;100887.53;;;3.65;44.30
55373;BME280;41249;47.838;16.490;2023-02-11T11:06:07;100875.44;;;4.36;42.82
55373;BME280;41249;47.838;16.490;2023-02-11T11:08:47;100869.72;;;4.71;42.34
55373;BME280;41249;47.838;16.490;2023-02-11T11:11:16;100871.59;;;5.36;41.91
55373;BME280;41249;47.838;16.490;2023-02-11T11:16:39;100870.22;;;5.85;39.08
55373;BME280;41249;47.838;16.490;2023-02-11T11:19:24;100868.25;;;5.94;39.29
55373;BME280;41249;47.838;16.490;2023-02-11T11:21:53;100865.84;;;5.84;40.32
55373;BME280;41249;47.838;16.490;2023-02-11T11:24:26;100864.56;;;5.73;39.95
55373;BME280;41249;47.838;16.490;2023-02-11T11:26:59;100858.13;;;5.52;40.56
55373;BME280;41249;47.838;16.490;2023-02-11T11:29:37;100853.59;;;5.56;41.04
55373;BME280;41249;47.838;16.490;2023-02-11T11:34:51;100837.44;;;5.92;42.70
55373;BME280;41249;47.838;16.490;2023-02-11T11:37:22;100838.16;;;6.18;43.89
55373;BME280;41249;47.838;16.490;2023-02-11T11:40:08;100836.06;;;6.44;42.27
55373;BME280;41249;47.838;16.490;2023-02-11T11:42:37;100815.91;;;6.52;43.94
55373;BME280;41249;47.838;16.490;2023-02-11T11:50:36;100811.44;;;6.39;41.64
55373;BME280;41249;47.838;16.490;2023-02-11T11:53:18;100800.28;;;6.36;38.62
55373;BME280;41249;47.838;16.490;2023-02-11T11:55:51;100798.38;;;6.28;39.73
55373;BME280;41249;47.838;16.490;2023-02-11T11:58:22;100796.63;;;6.23;40.46
55373;BME280;41249;47.838;16.490;2023-02-11T12:06:25;100770.88;;;6.11;38.11
55373;BME280;41249;47.838;16.490;2023-02-11T12:12:30;100774.13;;;6.13;38.76
55373;BME280;41249;47.838;16.490;2023-02-11T12:48:09;100710.66;;;4.65;39.61
55373;BME280;41249;47.838;16.490;2023-02-11T12:53:49;100710.78;;;4.08;42.40
55373;BME280;41249;47.838;16.490;2023-02-11T12:56:27;100719.78;;;4.00;42.29
55373;BME280;41249;47.838;16.490;2023-02-11T12:58:58;100723.25;;;3.75;42.74
55373;BME280;41249;47.838;16.490;2023-02-11T13:01:29;100723.25;;;3.75;41.57
55373;BME280;41249;47.838;16.490;2023-02-11T13:04:11;100726.97;;;3.71;42.93
55373;BME280;41249;47.838;16.490;2023-02-11T13:06:45;100719.69;;;3.66;42.28
55373;BME280;41249;47.838;16.490;2023-02-11T13:09:19;100708.78;;;3.53;41.71
55373;BME280;41249;47.838;16.490;2023-02-11T13:11:50;100717.34;;;3.51;41.36
55373;BME280;41249;47.838;16.490;2023-02-11T13:14:32;100696.63;;;3.36;41.62
55373;BME280;41249;47.838;16.490;2023-02-11T13:17:03;100701.44;;;3.31;41.44
55373;BME280;41249;47.838;16.490;2023-02-11T13:19:47;100697.47;;;3.15;41.15
55373;BME280;41249;47.838;16.490;2023-02-11T13:22:19;100703.34;;;3.00;40.55
55373;BME280;41249;47.838;16.490;2023-02-11T13:24:53;100693.25;;;2.87;40.44
55373;BME280;41249;47.838;16.490;2023-02-11T13:27:47;100704.94;;;2.78;39.19
55373;BME280;41249;47.838;16.490;2023-02-11T13:35:43;100694.22;;;2.68;39.19
55373;BME280;41249;47.838;16.490;2023-02-11T13:38:25;100708.56;;;2.65;40.72
55373;BME280;41249;47.838;16.490;2023-02-11T13:43:32;100705.53;;;2.67;40.68
55373;BME280;41249;47.838;16.490;2023-02-11T13:46:06;100705.88;;;2.74;40.83
55373;BME280;41249;47.838;16.490;2023-02-11T13:48:47;100709.56;;;2.92;40.67
55373;BME280;41249;47.838;16.490;2023-02-11T13:51:17;100711.81;;;3.12;41.76
55373;BME280;41249;47.838;16.490;2023-02-11T13:53:56;100729.38;;;3.11;41.76
55373;BME280;41249;47.838;16.490;2023-02-11T13:58:57;100728.53;;;3.02;41.74
55373;BME280;41249;47.838;16.490;2023-02-11T14:04:33;100720.41;;;2.74;41.91
55373;BME280;41249;47.838;16.490;2023-02-11T14:07:30;100720.41;;;2.74;40.98
55373;BME280;41249;47.838;16.490;2023-02-11T14:13:26;100712.56;;;2.59;42.06
55373;BME280;41249;47.838;16.490;2023-02-11T14:16:10;100712.19;;;2.52;41.68
55373;BME280;41249;47.838;16.490;2023-02-11T14:21:32;100702.66;;;2.50;42.31
55373;BME280;41249;47.838;16.490;2023-02-11T14:26:50;100704.31;;;2.37;43.20
55373;BME280;41249;47.838;16.490;2023-02-11T14:29:28;100703.97;;;2.52;44.24
55373;BME280;41249;47.838;16.490;2023-02-11T14:37:32;100703.59;;;2.32;43.07
55373;BME280;41249;47.838;16.490;2023-02-11T14:40:13;100685.84;;;2.29;43.26
55373;BME280;41249;47.838;16.490;2023-02-11T14:42:43;100688.16;;;2.36;43.90
55373;BME280;41249;47.838;16.490;2023-02-11T14:45:17;100696.81;;;2.29;43.64
55373;BME280;41249;47.838;16.490;2023-02-11T14:47:56;100698.94;;;2.32;43.37
55373;BME280;41249;47.838;16.490;2023-02-11T14:50:42;100690.78;;;2.41;43.37
55373;BME280;41249;47.838;16.490;2023-02-11T14:53:22;100692.31;;;2.33;43.80
55373;BME280;41249;47.838;16.490;2023-02-11T14:55:51;100686.44;;;2.40;42.24
55373;BME280;41249;47.838;16.490;2023-02-11T14:58:21;100697.06;;;2.77;40.65
55373;BME280;41249;47.838;16.490;2023-02-11T15:06:06;100685.50;;;2.44;42.48
55373;BME280;41249;47.838;16.490;2023-02-11T15:08:42;100680.38;;;2.29;42.56
55373;BME280;41249;47.838;16.490;2023-02-11T15:11:13;100676.09;;;2.37;42.33
55373;BME280;41249;47.838;16.490;2023-02-11T15:13:41;100676.53;;;2.30;43.29
55373;BME280;41249;47.838;16.490;2023-02-11T15:16:17;100673.56;;;2.40;41.55
55373;BME280;41249;47.838;16.490;2023-02-11T15:18:49;100678.63;;;2.55;40.98
55373;BME280;41249;47.838;16.490;2023-02-11T15:21:22;100667.19;;;2.75;39.36
55373;BME280;41249;47.838;16.490;2023-02-11T15:26:22;100673.16;;;3.00;37.12
55373;BME280;41249;47.838;16.490;2023-02-11T15:28:49;100659.13;;;3.01;34.90
55373;BME280;41249;47.838;16.490;2023-02-11T15:31:19;100662.06;;;3.05;33.46